Airfield :
LOGIN :

Register | Disclaimer

   EN    FR    IT 

 










Legend :    VFR   Marginal VFR   IFR   Intensive IFR   Very Intensive IFR
Visi :
Ceiling :
>= 8 km
>= 3000ft
5 to 8 km
1000 to 3000 ft
1500m to 5 km
500 to 1000 ft
800 to 1500m
200 to 500 ft
< 800m
< 200 ft
Symbols :   Thunderstorms  Fog  Heavy snow  Heavy precipitations  Wind > 20 kt
SIGMETs :     Misc.  Thunderstorms  Icing  Turbulence  Mountain Waves  Volcanic Ashes






- Airport Elevation : 16 ft
- IATA code : EAS


LESO - San Sebastian Fuenterrabia

CURRENT METAR :
  • 280730Z 23010KT 180V270 9999 FEW020 BKN025 11/09 Q1021

EXPIRED METARs :
  • 280700Z 24010KT 200V270 9999 VCSH SCT020CB BKN030 12/09 Q1020
  • 280630Z 23011KT 200V270 9000 VCSH SCT022CB BKN035 11/09 Q1020
  • 280600Z 23010KT 200V290 8000 -RA SCT018 BKN035 11/09 Q1020
  • 280530Z 23008KT 200V270 9000 -RA FEW015 BKN022 11/09 Q1020
  • 280500Z 23010KT 200V270 9999 VCSH BKN022TCU BKN050 11/09 Q1020

TAF COR TAF LESO
Valid from the 28 at 06:00 until the 29 at 06:00 UTC


280542Z 2806/2906 26009KT 9999 FEW010 SCT020 TX14/2816Z TN10/2808Z
TEMPO 2806/2906 3000 RA BKN010
PROB40
TEMPO 2806/2906 1500 SHRA SCT030TCU
PROB40
TEMPO 2806/2812 23017G27KT
PROB30
TEMPO 2806/2815 TS FEW035CB
PROB40
TEMPO 2814/2906 29019G29KT



MET'MAP, your aeronautical weather chart ! - Copyright ORBIFLY December 2007 - Disclaimer

ORBIFLY MET'MAP TEAM :

Programming & Development : Alexandra Zaïnal
Original concept : Baudouin d'Aumeries
Technical & hardware support : Manuel Goepfert
Assistance : Marc-Olivier Méhu




SOURCES & CREDITS :

   NOAA